Wann, Oklahoma
Current Conditions -  °F | °C
As of 10:53 AM on Sunday 23 Nov 2014 (Local Time) from KBVO Reporting Station
Overcast Overcast  
Wind Chill: 59°   Ceiling: 1400
Heat Index: 59°   Visibility: 10mi
Dew Point: 54°   Wind: 7mph
Humidity: 83%   Direction: 150°SSE
Pressure: 29.41"   Gusts: NA
Location:  36.92°N, 95.8°W
Report Text: KBVO 231653Z AUTO 15006KT 10SM OVC014 15/12 A2941 RMK AO2 SLP951 T01500122
Loading
Personal Weather Stations






























Interactive Weather Map New forecast layout! Learn more

10-Day Weather Forecast

Advertisements
Track Severe Weather on mobile